sensor_id;sensor_type;location;lat;lon;timestamp;temperature;humidity
27858;DHT22;16852;51.446;6.528;2024-02-26T00:00:21;7.70;99.90
27858;DHT22;16852;51.446;6.528;2024-02-26T00:02:21;7.70;99.90
27858;DHT22;16852;51.446;6.528;2024-02-26T00:04:22;7.70;99.90
27858;DHT22;16852;51.446;6.528;2024-02-26T00:06:26;7.80;99.90
27858;DHT22;16852;51.446;6.528;2024-02-26T00:08:26;7.70;99.90
27858;DHT22;16852;51.446;6.528;2024-02-26T00:10:27;7.80;99.90
27858;DHT22;16852;51.446;6.528;2024-02-26T00:12:28;7.80;99.90
27858;DHT22;16852;51.446;6.528;2024-02-26T00:14:29;7.90;99.90
27858;DHT22;16852;51.446;6.528;2024-02-26T00:16:30;7.90;99.90
27858;DHT22;16852;51.446;6.528;2024-02-26T00:18:31;7.80;99.90
27858;DHT22;16852;51.446;6.528;2024-02-26T00:20:31;7.80;99.90
27858;DHT22;16852;51.446;6.528;2024-02-26T00:22:32;7.80;99.90
27858;DHT22;16852;51.446;6.528;2024-02-26T00:24:32;7.80;99.90
27858;DHT22;16852;51.446;6.528;2024-02-26T00:26:33;7.70;99.90
27858;DHT22;16852;51.446;6.528;2024-02-26T00:28:34;7.70;99.90
27858;DHT22;16852;51.446;6.528;2024-02-26T00:30:34;7.70;99.90
27858;DHT22;16852;51.446;6.528;2024-02-26T00:32:35;7.60;99.90
27858;DHT22;16852;51.446;6.528;2024-02-26T00:34:36;7.60;99.90
27858;DHT22;16852;51.446;6.528;2024-02-26T00:36:36;7.50;99.90
27858;DHT22;16852;51.446;6.528;2024-02-26T00:38:37;7.50;99.90
27858;DHT22;16852;51.446;6.528;2024-02-26T00:40:38;7.50;99.90
27858;DHT22;16852;51.446;6.528;2024-02-26T00:42:38;7.50;99.90
27858;DHT22;16852;51.446;6.528;2024-02-26T00:44:39;7.40;99.90
27858;DHT22;16852;51.446;6.528;2024-02-26T00:46:39;7.30;99.90
27858;DHT22;16852;51.446;6.528;2024-02-26T00:48:40;7.30;99.90
27858;DHT22;16852;51.446;6.528;2024-02-26T00:50:41;7.40;99.90
27858;DHT22;16852;51.446;6.528;2024-02-26T00:52:41;7.40;99.90
27858;DHT22;16852;51.446;6.528;2024-02-26T00:54:42;7.50;99.90
27858;DHT22;16852;51.446;6.528;2024-02-26T00:56:43;7.50;99.90
27858;DHT22;16852;51.446;6.528;2024-02-26T00:58:43;7.60;99.90
27858;DHT22;16852;51.446;6.528;2024-02-26T01:00:44;7.60;99.90
27858;DHT22;16852;51.446;6.528;2024-02-26T01:02:44;7.70;99.90
27858;DHT22;16852;51.446;6.528;2024-02-26T01:04:48;7.70;99.90
27858;DHT22;16852;51.446;6.528;2024-02-26T01:06:48;7.70;99.90
27858;DHT22;16852;51.446;6.528;2024-02-26T01:08:49;7.70;99.90
27858;DHT22;16852;51.446;6.528;2024-02-26T01:10:50;7.70;99.90
27858;DHT22;16852;51.446;6.528;2024-02-26T01:12:51;7.70;99.90
27858;DHT22;16852;51.446;6.528;2024-02-26T01:14:52;7.70;99.90
27858;DHT22;16852;51.446;6.528;2024-02-26T01:16:52;7.70;99.90
27858;DHT22;16852;51.446;6.528;2024-02-26T01:18:53;7.70;99.90
27858;DHT22;16852;51.446;6.528;2024-02-26T01:20:53;7.60;99.90
27858;DHT22;16852;51.446;6.528;2024-02-26T01:22:54;7.60;99.90
27858;DHT22;16852;51.446;6.528;2024-02-26T01:24:55;7.60;99.90
27858;DHT22;16852;51.446;6.528;2024-02-26T01:26:57;7.60;99.90
27858;DHT22;16852;51.446;6.528;2024-02-26T01:28:57;7.60;99.90
27858;DHT22;16852;51.446;6.528;2024-02-26T01:30:58;7.60;99.90
27858;DHT22;16852;51.446;6.528;2024-02-26T01:33:00;7.50;99.90
27858;DHT22;16852;51.446;6.528;2024-02-26T01:35:03;7.50;99.90
27858;DHT22;16852;51.446;6.528;2024-02-26T01:37:04;7.50;99.90
27858;DHT22;16852;51.446;6.528;2024-02-26T01:39:04;7.50;99.90
27858;DHT22;16852;51.446;6.528;2024-02-26T01:41:05;7.50;99.90
27858;DHT22;16852;51.446;6.528;2024-02-26T01:43:06;7.40;99.90
27858;DHT22;16852;51.446;6.528;2024-02-26T01:45:14;7.40;99.90
27858;DHT22;16852;51.446;6.528;2024-02-26T01:47:16;7.40;99.90
27858;DHT22;16852;51.446;6.528;2024-02-26T01:49:17;7.40;99.90
27858;DHT22;16852;51.446;6.528;2024-02-26T01:51:18;7.40;99.90
27858;DHT22;16852;51.446;6.528;2024-02-26T01:53:19;7.40;99.90
27858;DHT22;16852;51.446;6.528;2024-02-26T01:55:22;7.50;99.90
27858;DHT22;16852;51.446;6.528;2024-02-26T01:57:24;7.40;99.90
27858;DHT22;16852;51.446;6.528;2024-02-26T01:59:24;7.40;99.90
27858;DHT22;16852;51.446;6.528;2024-02-26T02:01:26;7.40;99.90
27858;DHT22;16852;51.446;6.528;2024-02-26T02:03:27;7.40;99.90
27858;DHT22;16852;51.446;6.528;2024-02-26T02:05:29;7.40;99.90
27858;DHT22;16852;51.446;6.528;2024-02-26T02:07:30;7.40;99.90
27858;DHT22;16852;51.446;6.528;2024-02-26T02:09:31;7.40;99.90
27858;DHT22;16852;51.446;6.528;2024-02-26T02:11:33;7.40;99.90
27858;DHT22;16852;51.446;6.528;2024-02-26T02:13:34;7.40;99.90
27858;DHT22;16852;51.446;6.528;2024-02-26T02:15:34;7.50;99.90
27858;DHT22;16852;51.446;6.528;2024-02-26T02:17:35;7.50;99.90
27858;DHT22;16852;51.446;6.528;2024-02-26T02:19:36;7.40;99.90
27858;DHT22;16852;51.446;6.528;2024-02-26T02:21:37;7.40;99.90
27858;DHT22;16852;51.446;6.528;2024-02-26T02:23:37;7.40;99.90
27858;DHT22;16852;51.446;6.528;2024-02-26T02:25:38;7.40;99.90
27858;DHT22;16852;51.446;6.528;2024-02-26T02:27:39;7.30;99.90
27858;DHT22;16852;51.446;6.528;2024-02-26T02:29:40;7.30;99.90
27858;DHT22;16852;51.446;6.528;2024-02-26T02:31:41;7.30;99.90
27858;DHT22;16852;51.446;6.528;2024-02-26T02:33:42;7.30;99.90
27858;DHT22;16852;51.446;6.528;2024-02-26T02:35:43;7.30;99.90
27858;DHT22;16852;51.446;6.528;2024-02-26T02:37:44;7.30;99.90
27858;DHT22;16852;51.446;6.528;2024-02-26T02:39:47;7.30;99.90
27858;DHT22;16852;51.446;6.528;2024-02-26T02:41:48;7.20;99.90
27858;DHT22;16852;51.446;6.528;2024-02-26T02:43:49;7.30;99.90
27858;DHT22;16852;51.446;6.528;2024-02-26T02:45:49;7.30;99.90
27858;DHT22;16852;51.446;6.528;2024-02-26T02:47:50;7.30;99.90
27858;DHT22;16852;51.446;6.528;2024-02-26T02:49:50;7.30;99.90
27858;DHT22;16852;51.446;6.528;2024-02-26T02:51:51;7.30;99.90
27858;DHT22;16852;51.446;6.528;2024-02-26T02:53:53;7.30;99.90
27858;DHT22;16852;51.446;6.528;2024-02-26T02:55:54;7.30;99.90
27858;DHT22;16852;51.446;6.528;2024-02-26T02:57:55;7.30;99.90
27858;DHT22;16852;51.446;6.528;2024-02-26T02:59:55;7.30;99.90
27858;DHT22;16852;51.446;6.528;2024-02-26T03:01:56;7.30;99.90
27858;DHT22;16852;51.446;6.528;2024-02-26T03:03:56;7.30;99.90
27858;DHT22;16852;51.446;6.528;2024-02-26T03:05:57;7.20;99.90
27858;DHT22;16852;51.446;6.528;2024-02-26T03:07:58;7.20;99.90
27858;DHT22;16852;51.446;6.528;2024-02-26T03:09:58;7.10;99.90
27858;DHT22;16852;51.446;6.528;2024-02-26T03:11:59;7.10;99.90
27858;DHT22;16852;51.446;6.528;2024-02-26T03:14:02;7.10;99.90
27858;DHT22;16852;51.446;6.528;2024-02-26T03:16:06;7.10;99.90
27858;DHT22;16852;51.446;6.528;2024-02-26T03:18:06;7.10;99.90
27858;DHT22;16852;51.446;6.528;2024-02-26T03:20:08;7.00;99.90
27858;DHT22;16852;51.446;6.528;2024-02-26T03:22:10;7.10;99.90
27858;DHT22;16852;51.446;6.528;2024-02-26T03:24:10;7.00;99.90
27858;DHT22;16852;51.446;6.528;2024-02-26T03:26:11;7.10;99.90
27858;DHT22;16852;51.446;6.528;2024-02-26T03:28:14;7.10;99.90
27858;DHT22;16852;51.446;6.528;2024-02-26T03:30:16;7.10;99.90
27858;DHT22;16852;51.446;6.528;2024-02-26T03:32:17;7.00;99.90
27858;DHT22;16852;51.446;6.528;2024-02-26T03:34:17;7.00;99.90
27858;DHT22;16852;51.446;6.528;2024-02-26T03:36:20;7.00;99.90
27858;DHT22;16852;51.446;6.528;2024-02-26T03:38:22;7.00;99.90
27858;DHT22;16852;51.446;6.528;2024-02-26T03:40:22;7.00;99.90
27858;DHT22;16852;51.446;6.528;2024-02-26T03:42:24;6.90;99.90
27858;DHT22;16852;51.446;6.528;2024-02-26T03:44:25;6.90;99.90
27858;DHT22;16852;51.446;6.528;2024-02-26T03:46:25;6.90;99.90
27858;DHT22;16852;51.446;6.528;2024-02-26T03:48:26;6.80;99.90
27858;DHT22;16852;51.446;6.528;2024-02-26T03:50:27;6.80;99.90
27858;DHT22;16852;51.446;6.528;2024-02-26T03:52:27;6.80;99.90
27858;DHT22;16852;51.446;6.528;2024-02-26T03:54:28;6.70;99.90
27858;DHT22;16852;51.446;6.528;2024-02-26T03:56:28;6.70;99.90
27858;DHT22;16852;51.446;6.528;2024-02-26T03:58:29;6.70;99.90
27858;DHT22;16852;51.446;6.528;2024-02-26T04:00:30;6.60;99.90
27858;DHT22;16852;51.446;6.528;2024-02-26T04:02:30;6.70;99.90
27858;DHT22;16852;51.446;6.528;2024-02-26T04:04:34;6.60;99.90
27858;DHT22;16852;51.446;6.528;2024-02-26T04:06:34;6.60;99.90
27858;DHT22;16852;51.446;6.528;2024-02-26T04:08:35;6.60;99.90
27858;DHT22;16852;51.446;6.528;2024-02-26T04:10:36;6.60;99.90
27858;DHT22;16852;51.446;6.528;2024-02-26T04:12:39;6.50;99.90
27858;DHT22;16852;51.446;6.528;2024-02-26T04:14:44;6.60;99.90
27858;DHT22;16852;51.446;6.528;2024-02-26T04:16:45;6.50;99.90
27858;DHT22;16852;51.446;6.528;2024-02-26T04:18:45;6.50;99.90
27858;DHT22;16852;51.446;6.528;2024-02-26T04:20:46;6.50;99.90
27858;DHT22;16852;51.446;6.528;2024-02-26T04:22:47;6.50;99.90
27858;DHT22;16852;51.446;6.528;2024-02-26T04:24:48;6.50;99.90
27858;DHT22;16852;51.446;6.528;2024-02-26T04:26:48;6.50;99.90
27858;DHT22;16852;51.446;6.528;2024-02-26T04:28:50;6.40;99.90
27858;DHT22;16852;51.446;6.528;2024-02-26T04:30:50;6.50;99.90
27858;DHT22;16852;51.446;6.528;2024-02-26T04:32:51;6.50;99.90
27858;DHT22;16852;51.446;6.528;2024-02-26T04:34:52;6.40;99.90
27858;DHT22;16852;51.446;6.528;2024-02-26T04:36:52;6.40;99.90
27858;DHT22;16852;51.446;6.528;2024-02-26T04:38:53;6.40;99.90
27858;DHT22;16852;51.446;6.528;2024-02-26T04:40:56;6.40;99.90
27858;DHT22;16852;51.446;6.528;2024-02-26T04:42:56;6.30;99.90
27858;DHT22;16852;51.446;6.528;2024-02-26T04:44:57;6.30;99.90
27858;DHT22;16852;51.446;6.528;2024-02-26T04:46:58;6.30;99.90
27858;DHT22;16852;51.446;6.528;2024-02-26T04:48:59;6.40;99.90
27858;DHT22;16852;51.446;6.528;2024-02-26T04:50:59;6.30;99.90
27858;DHT22;16852;51.446;6.528;2024-02-26T04:53:00;6.30;99.90
27858;DHT22;16852;51.446;6.528;2024-02-26T04:55:02;6.30;99.90
27858;DHT22;16852;51.446;6.528;2024-02-26T04:57:03;6.30;99.90
27858;DHT22;16852;51.446;6.528;2024-02-26T04:59:05;6.30;99.90
27858;DHT22;16852;51.446;6.528;2024-02-26T05:01:05;6.20;99.90
27858;DHT22;16852;51.446;6.528;2024-02-26T05:03:06;6.20;99.90
27858;DHT22;16852;51.446;6.528;2024-02-26T05:05:08;6.20;99.90
27858;DHT22;16852;51.446;6.528;2024-02-26T05:07:13;6.20;99.90
27858;DHT22;16852;51.446;6.528;2024-02-26T05:09:13;6.20;99.90
27858;DHT22;16852;51.446;6.528;2024-02-26T05:11:14;6.20;99.90
27858;DHT22;16852;51.446;6.528;2024-02-26T05:13:15;6.10;99.90
27858;DHT22;16852;51.446;6.528;2024-02-26T05:15:18;6.10;99.90
27858;DHT22;16852;51.446;6.528;2024-02-26T05:17:18;6.10;99.90
27858;DHT22;16852;51.446;6.528;2024-02-26T05:19:19;6.00;99.90
27858;DHT22;16852;51.446;6.528;2024-02-26T05:21:20;6.00;99.90
27858;DHT22;16852;51.446;6.528;2024-02-26T05:23:21;6.00;99.90
27858;DHT22;16852;51.446;6.528;2024-02-26T05:25:21;6.00;99.90
27858;DHT22;16852;51.446;6.528;2024-02-26T05:27:22;6.00;99.90
27858;DHT22;16852;51.446;6.528;2024-02-26T05:29:22;6.00;99.90
27858;DHT22;16852;51.446;6.528;2024-02-26T05:31:23;6.00;99.90
27858;DHT22;16852;51.446;6.528;2024-02-26T05:33:23;5.90;99.90
27858;DHT22;16852;51.446;6.528;2024-02-26T05:35:25;5.90;99.90
27858;DHT22;16852;51.446;6.528;2024-02-26T05:37:28;5.90;99.90
27858;DHT22;16852;51.446;6.528;2024-02-26T05:39:29;5.90;99.90
27858;DHT22;16852;51.446;6.528;2024-02-26T05:41:30;5.90;99.90
27858;DHT22;16852;51.446;6.528;2024-02-26T05:43:30;5.90;99.90
27858;DHT22;16852;51.446;6.528;2024-02-26T05:45:31;5.90;99.90
27858;DHT22;16852;51.446;6.528;2024-02-26T05:47:33;5.80;99.90
27858;DHT22;16852;51.446;6.528;2024-02-26T05:49:33;5.90;99.90
27858;DHT22;16852;51.446;6.528;2024-02-26T05:51:34;5.80;99.90
27858;DHT22;16852;51.446;6.528;2024-02-26T05:53:35;5.80;99.90
27858;DHT22;16852;51.446;6.528;2024-02-26T05:55:35;5.80;99.90
27858;DHT22;16852;51.446;6.528;2024-02-26T05:57:36;5.80;99.90
27858;DHT22;16852;51.446;6.528;2024-02-26T05:59:37;5.80;99.90
27858;DHT22;16852;51.446;6.528;2024-02-26T06:01:37;5.80;99.90
27858;DHT22;16852;51.446;6.528;2024-02-26T06:03:38;5.80;99.90
27858;DHT22;16852;51.446;6.528;2024-02-26T06:05:38;5.80;99.90
27858;DHT22;16852;51.446;6.528;2024-02-26T06:07:42;5.80;99.90
27858;DHT22;16852;51.446;6.528;2024-02-26T06:09:43;5.80;99.90
27858;DHT22;16852;51.446;6.528;2024-02-26T06:11:43;5.80;99.90
27858;DHT22;16852;51.446;6.528;2024-02-26T06:13:44;5.80;99.90
27858;DHT22;16852;51.446;6.528;2024-02-26T06:15:45;5.70;99.90
27858;DHT22;16852;51.446;6.528;2024-02-26T06:17:46;5.80;99.90
27858;DHT22;16852;51.446;6.528;2024-02-26T06:19:48;5.80;99.90
27858;DHT22;16852;51.446;6.528;2024-02-26T06:21:48;5.80;99.90
27858;DHT22;16852;51.446;6.528;2024-02-26T06:23:49;5.80;99.90
27858;DHT22;16852;51.446;6.528;2024-02-26T06:25:51;5.70;99.90
27858;DHT22;16852;51.446;6.528;2024-02-26T06:27:55;5.80;99.90
27858;DHT22;16852;51.446;6.528;2024-02-26T06:29:56;5.70;99.90
27858;DHT22;16852;51.446;6.528;2024-02-26T06:31:57;5.80;99.90
27858;DHT22;16852;51.446;6.528;2024-02-26T06:33:58;5.70;99.90
27858;DHT22;16852;51.446;6.528;2024-02-26T06:35:59;5.80;99.90
27858;DHT22;16852;51.446;6.528;2024-02-26T06:38:00;5.80;99.90
27858;DHT22;16852;51.446;6.528;2024-02-26T06:40:01;5.80;99.90
27858;DHT22;16852;51.446;6.528;2024-02-26T06:42:06;5.80;99.90
27858;DHT22;16852;51.446;6.528;2024-02-26T06:44:07;5.80;99.90
27858;DHT22;16852;51.446;6.528;2024-02-26T06:46:07;5.70;99.90
27858;DHT22;16852;51.446;6.528;2024-02-26T06:48:08;5.70;99.90
27858;DHT22;16852;51.446;6.528;2024-02-26T06:50:12;5.70;99.90
27858;DHT22;16852;51.446;6.528;2024-02-26T06:52:13;5.70;99.90
27858;DHT22;16852;51.446;6.528;2024-02-26T06:54:14;5.70;99.90
27858;DHT22;16852;51.446;6.528;2024-02-26T06:56:15;5.80;99.90
27858;DHT22;16852;51.446;6.528;2024-02-26T06:58:16;5.80;99.90
27858;DHT22;16852;51.446;6.528;2024-02-26T07:00:17;5.70;99.90
27858;DHT22;16852;51.446;6.528;2024-02-26T07:02:18;5.80;99.90
27858;DHT22;16852;51.446;6.528;2024-02-26T07:04:19;5.70;99.90
27858;DHT22;16852;51.446;6.528;2024-02-26T07:06:20;5.80;99.90
27858;DHT22;16852;51.446;6.528;2024-02-26T07:08:22;5.80;99.90
27858;DHT22;16852;51.446;6.528;2024-02-26T07:10:24;5.80;99.90
27858;DHT22;16852;51.446;6.528;2024-02-26T07:12:24;5.70;99.90
27858;DHT22;16852;51.446;6.528;2024-02-26T07:14:25;5.80;99.90
27858;DHT22;16852;51.446;6.528;2024-02-26T07:16:26;5.80;99.90
27858;DHT22;16852;51.446;6.528;2024-02-26T07:18:27;5.80;99.90
27858;DHT22;16852;51.446;6.528;2024-02-26T07:20:31;5.80;99.90
27858;DHT22;16852;51.446;6.528;2024-02-26T07:22:32;5.80;99.90
27858;DHT22;16852;51.446;6.528;2024-02-26T07:24:32;5.80;99.90
27858;DHT22;16852;51.446;6.528;2024-02-26T07:26:33;5.80;99.90
27858;DHT22;16852;51.446;6.528;2024-02-26T07:28:35;5.80;99.90
27858;DHT22;16852;51.446;6.528;2024-02-26T07:30:35;5.80;99.90
27858;DHT22;16852;51.446;6.528;2024-02-26T07:32:36;5.80;99.90
27858;DHT22;16852;51.446;6.528;2024-02-26T07:34:37;5.80;99.90
27858;DHT22;16852;51.446;6.528;2024-02-26T07:36:40;5.80;99.90
27858;DHT22;16852;51.446;6.528;2024-02-26T07:38:40;5.80;99.90
27858;DHT22;16852;51.446;6.528;2024-02-26T07:40:41;5.90;99.90
27858;DHT22;16852;51.446;6.528;2024-02-26T07:42:41;5.90;99.90
27858;DHT22;16852;51.446;6.528;2024-02-26T07:44:42;5.80;99.90
27858;DHT22;16852;51.446;6.528;2024-02-26T07:46:43;5.90;99.90
27858;DHT22;16852;51.446;6.528;2024-02-26T07:48:44;5.90;99.90
27858;DHT22;16852;51.446;6.528;2024-02-26T07:50:45;5.90;99.90
27858;DHT22;16852;51.446;6.528;2024-02-26T07:52:46;5.80;99.90
27858;DHT22;16852;51.446;6.528;2024-02-26T07:54:47;5.90;99.90
27858;DHT22;16852;51.446;6.528;2024-02-26T07:56:47;5.90;99.90
27858;DHT22;16852;51.446;6.528;2024-02-26T07:58:48;5.90;99.90
27858;DHT22;16852;51.446;6.528;2024-02-26T08:00:49;5.90;99.90
27858;DHT22;16852;51.446;6.528;2024-02-26T08:02:50;5.90;99.90
27858;DHT22;16852;51.446;6.528;2024-02-26T08:04:50;5.90;99.90
27858;DHT22;16852;51.446;6.528;2024-02-26T08:06:51;5.80;99.90
27858;DHT22;16852;51.446;6.528;2024-02-26T08:08:51;5.80;99.90
27858;DHT22;16852;51.446;6.528;2024-02-26T08:10:52;5.90;99.90
27858;DHT22;16852;51.446;6.528;2024-02-26T08:12:53;5.80;99.90
27858;DHT22;16852;51.446;6.528;2024-02-26T08:14:54;5.80;99.90
27858;DHT22;16852;51.446;6.528;2024-02-26T08:16:56;5.80;99.90
27858;DHT22;16852;51.446;6.528;2024-02-26T08:18:57;5.80;99.90
27858;DHT22;16852;51.446;6.528;2024-02-26T08:20:58;5.80;99.90
27858;DHT22;16852;51.446;6.528;2024-02-26T08:22:58;5.80;99.90
27858;DHT22;16852;51.446;6.528;2024-02-26T08:24:59;5.80;99.90
27858;DHT22;16852;51.446;6.528;2024-02-26T08:27:00;5.80;99.90
27858;DHT22;16852;51.446;6.528;2024-02-26T08:29:01;5.90;99.90
27858;DHT22;16852;51.446;6.528;2024-02-26T08:31:01;5.90;99.90
27858;DHT22;16852;51.446;6.528;2024-02-26T08:33:02;5.90;99.90
27858;DHT22;16852;51.446;6.528;2024-02-26T08:35:03;5.90;99.90
27858;DHT22;16852;51.446;6.528;2024-02-26T08:37:04;5.90;99.90
27858;DHT22;16852;51.446;6.528;2024-02-26T08:39:06;5.90;99.90
27858;DHT22;16852;51.446;6.528;2024-02-26T08:41:09;5.90;99.90
27858;DHT22;16852;51.446;6.528;2024-02-26T08:43:10;5.90;99.90
27858;DHT22;16852;51.446;6.528;2024-02-26T08:45:12;5.90;99.90
27858;DHT22;16852;51.446;6.528;2024-02-26T08:47:16;5.90;99.90
27858;DHT22;16852;51.446;6.528;2024-02-26T08:49:17;5.90;99.90
27858;DHT22;16852;51.446;6.528;2024-02-26T08:51:18;5.90;99.90
27858;DHT22;16852;51.446;6.528;2024-02-26T08:53:18;6.00;99.90
27858;DHT22;16852;51.446;6.528;2024-02-26T08:55:19;6.00;99.90
27858;DHT22;16852;51.446;6.528;2024-02-26T08:57:21;5.90;99.90
27858;DHT22;16852;51.446;6.528;2024-02-26T08:59:22;6.00;99.90
27858;DHT22;16852;51.446;6.528;2024-02-26T09:01:23;6.00;99.90
27858;DHT22;16852;51.446;6.528;2024-02-26T09:03:24;6.00;99.90
27858;DHT22;16852;51.446;6.528;2024-02-26T09:05:26;6.00;99.90
27858;DHT22;16852;51.446;6.528;2024-02-26T09:07:27;6.00;99.90
27858;DHT22;16852;51.446;6.528;2024-02-26T09:09:29;6.10;99.90
27858;DHT22;16852;51.446;6.528;2024-02-26T09:11:30;6.10;99.90
27858;DHT22;16852;51.446;6.528;2024-02-26T09:13:31;6.10;99.90
27858;DHT22;16852;51.446;6.528;2024-02-26T09:15:32;6.10;99.90
27858;DHT22;16852;51.446;6.528;2024-02-26T09:17:33;6.10;99.90
27858;DHT22;16852;51.446;6.528;2024-02-26T09:19:33;6.10;99.90
27858;DHT22;16852;51.446;6.528;2024-02-26T09:21:34;6.10;99.90
27858;DHT22;16852;51.446;6.528;2024-02-26T09:23:34;6.20;99.90
27858;DHT22;16852;51.446;6.528;2024-02-26T09:25:35;6.20;99.90
27858;DHT22;16852;51.446;6.528;2024-02-26T09:27:36;6.10;99.90
27858;DHT22;16852;51.446;6.528;2024-02-26T09:29:37;6.10;99.90
27858;DHT22;16852;51.446;6.528;2024-02-26T09:31:38;6.20;99.90
27858;DHT22;16852;51.446;6.528;2024-02-26T09:33:40;6.20;99.90
27858;DHT22;16852;51.446;6.528;2024-02-26T09:35:41;6.20;99.90
27858;DHT22;16852;51.446;6.528;2024-02-26T09:37:42;6.20;99.90
27858;DHT22;16852;51.446;6.528;2024-02-26T09:39:44;6.20;99.90
27858;DHT22;16852;51.446;6.528;2024-02-26T09:41:45;6.20;99.90
27858;DHT22;16852;51.446;6.528;2024-02-26T09:43:45;6.20;99.90
27858;DHT22;16852;51.446;6.528;2024-02-26T09:45:48;6.20;99.90
27858;DHT22;16852;51.446;6.528;2024-02-26T09:47:50;6.10;99.90
27858;DHT22;16852;51.446;6.528;2024-02-26T09:49:52;6.20;99.90
27858;DHT22;16852;51.446;6.528;2024-02-26T09:51:54;6.20;99.90
27858;DHT22;16852;51.446;6.528;2024-02-26T09:53:59;6.20;99.90
27858;DHT22;16852;51.446;6.528;2024-02-26T09:56:02;6.10;99.90
27858;DHT22;16852;51.446;6.528;2024-02-26T09:58:04;6.10;99.90
27858;DHT22;16852;51.446;6.528;2024-02-26T10:00:08;6.10;99.90
27858;DHT22;16852;51.446;6.528;2024-02-26T10:02:14;6.10;99.90
27858;DHT22;16852;51.446;6.528;2024-02-26T10:04:15;6.10;99.90
27858;DHT22;16852;51.446;6.528;2024-02-26T10:06:16;6.10;99.90
27858;DHT22;16852;51.446;6.528;2024-02-26T10:08:17;6.10;99.90
27858;DHT22;16852;51.446;6.528;2024-02-26T10:10:19;6.10;99.90
27858;DHT22;16852;51.446;6.528;2024-02-26T10:12:20;6.10;99.90
27858;DHT22;16852;51.446;6.528;2024-02-26T10:14:20;6.10;99.90
27858;DHT22;16852;51.446;6.528;2024-02-26T10:16:22;6.10;99.90
27858;DHT22;16852;51.446;6.528;2024-02-26T10:18:23;6.10;99.90
27858;DHT22;16852;51.446;6.528;2024-02-26T10:20:25;6.20;99.90
27858;DHT22;16852;51.446;6.528;2024-02-26T10:22:27;6.20;99.90
27858;DHT22;16852;51.446;6.528;2024-02-26T10:24:29;6.20;99.90
27858;DHT22;16852;51.446;6.528;2024-02-26T10:26:30;6.20;99.90
27858;DHT22;16852;51.446;6.528;2024-02-26T10:28:30;6.20;99.90
27858;DHT22;16852;51.446;6.528;2024-02-26T10:30:31;6.20;99.90
27858;DHT22;16852;51.446;6.528;2024-02-26T10:32:32;6.20;99.90
27858;DHT22;16852;51.446;6.528;2024-02-26T10:34:35;6.30;99.90
27858;DHT22;16852;51.446;6.528;2024-02-26T10:36:38;6.30;99.90
27858;DHT22;16852;51.446;6.528;2024-02-26T10:38:41;6.30;99.90
27858;DHT22;16852;51.446;6.528;2024-02-26T10:40:42;6.30;99.90
27858;DHT22;16852;51.446;6.528;2024-02-26T10:42:43;6.40;99.90
27858;DHT22;16852;51.446;6.528;2024-02-26T10:44:46;6.30;99.90
27858;DHT22;16852;51.446;6.528;2024-02-26T10:46:48;6.30;99.90
27858;DHT22;16852;51.446;6.528;2024-02-26T10:48:53;6.30;99.90
27858;DHT22;16852;51.446;6.528;2024-02-26T10:50:54;6.40;99.90
27858;DHT22;16852;51.446;6.528;2024-02-26T10:52:57;6.40;99.90
27858;DHT22;16852;51.446;6.528;2024-02-26T10:55:03;6.40;99.90
27858;DHT22;16852;51.446;6.528;2024-02-26T10:57:04;6.40;99.90
27858;DHT22;16852;51.446;6.528;2024-02-26T10:59:07;6.40;99.90
27858;DHT22;16852;51.446;6.528;2024-02-26T11:01:10;6.40;99.90
27858;DHT22;16852;51.446;6.528;2024-02-26T11:03:12;6.40;99.90
27858;DHT22;16852;51.446;6.528;2024-02-26T11:05:17;6.50;99.90
27858;DHT22;16852;51.446;6.528;2024-02-26T11:07:18;6.40;99.90
27858;DHT22;16852;51.446;6.528;2024-02-26T11:09:19;6.40;99.90
27858;DHT22;16852;51.446;6.528;2024-02-26T11:11:20;6.50;99.90
27858;DHT22;16852;51.446;6.528;2024-02-26T11:13:24;6.50;99.90
27858;DHT22;16852;51.446;6.528;2024-02-26T11:15:28;6.50;99.90
27858;DHT22;16852;51.446;6.528;2024-02-26T11:17:29;6.50;99.90
27858;DHT22;16852;51.446;6.528;2024-02-26T11:19:36;6.60;99.90
27858;DHT22;16852;51.446;6.528;2024-02-26T11:21:37;6.60;99.90
27858;DHT22;16852;51.446;6.528;2024-02-26T11:23:43;6.70;99.90
27858;DHT22;16852;51.446;6.528;2024-02-26T11:25:43;6.60;99.90
27858;DHT22;16852;51.446;6.528;2024-02-26T11:27:50;6.60;99.90
27858;DHT22;16852;51.446;6.528;2024-02-26T11:29:53;6.70;99.90
27858;DHT22;16852;51.446;6.528;2024-02-26T11:31:55;6.70;99.90
27858;DHT22;16852;51.446;6.528;2024-02-26T11:33:56;6.80;99.90
27858;DHT22;16852;51.446;6.528;2024-02-26T11:35:57;6.80;99.90
27858;DHT22;16852;51.446;6.528;2024-02-26T11:37:58;6.90;99.90
27858;DHT22;16852;51.446;6.528;2024-02-26T11:40:01;6.90;99.90
27858;DHT22;16852;51.446;6.528;2024-02-26T11:42:06;7.00;99.90
27858;DHT22;16852;51.446;6.528;2024-02-26T11:44:08;7.00;99.90
27858;DHT22;16852;51.446;6.528;2024-02-26T11:46:25;7.10;99.90
27858;DHT22;16852;51.446;6.528;2024-02-26T11:48:28;7.20;99.90
27858;DHT22;16852;51.446;6.528;2024-02-26T11:50:35;7.20;99.90
27858;DHT22;16852;51.446;6.528;2024-02-26T11:52:37;7.20;99.90
27858;DHT22;16852;51.446;6.528;2024-02-26T11:54:52;7.20;99.90
27858;DHT22;16852;51.446;6.528;2024-02-26T11:56:58;7.30;99.90
27858;DHT22;16852;51.446;6.528;2024-02-26T11:59:36;7.30;99.90
27858;DHT22;16852;51.446;6.528;2024-02-26T12:01:46;7.30;99.90
27858;DHT22;16852;51.446;6.528;2024-02-26T12:03:51;7.30;99.90
27858;DHT22;16852;51.446;6.528;2024-02-26T12:05:52;7.20;99.90
27858;DHT22;16852;51.446;6.528;2024-02-26T12:08:03;7.20;99.90
27858;DHT22;16852;51.446;6.528;2024-02-26T12:10:24;7.20;99.90
27858;DHT22;16852;51.446;6.528;2024-02-26T12:12:27;7.10;99.90
27858;DHT22;16852;51.446;6.528;2024-02-26T12:14:55;7.10;99.90
27858;DHT22;16852;51.446;6.528;2024-02-26T12:16:59;7.10;99.90
27858;DHT22;16852;51.446;6.528;2024-02-26T12:19:00;7.00;99.90
27858;DHT22;16852;51.446;6.528;2024-02-26T12:21:02;7.10;99.90
27858;DHT22;16852;51.446;6.528;2024-02-26T12:23:04;7.10;99.90
27858;DHT22;16852;51.446;6.528;2024-02-26T12:25:08;7.20;99.90
27858;DHT22;16852;51.446;6.528;2024-02-26T12:27:12;7.20;99.90
27858;DHT22;16852;51.446;6.528;2024-02-26T12:29:17;7.20;99.90
27858;DHT22;16852;51.446;6.528;2024-02-26T12:31:18;7.20;99.90
27858;DHT22;16852;51.446;6.528;2024-02-26T12:33:19;7.20;99.90
27858;DHT22;16852;51.446;6.528;2024-02-26T12:35:20;7.20;99.90
27858;DHT22;16852;51.446;6.528;2024-02-26T12:37:21;7.20;99.90
27858;DHT22;16852;51.446;6.528;2024-02-26T12:39:22;7.20;99.90
27858;DHT22;16852;51.446;6.528;2024-02-26T12:41:23;7.40;99.90
27858;DHT22;16852;51.446;6.528;2024-02-26T12:43:24;7.30;99.90
27858;DHT22;16852;51.446;6.528;2024-02-26T12:45:26;7.30;99.90
27858;DHT22;16852;51.446;6.528;2024-02-26T12:47:28;7.40;99.90
27858;DHT22;16852;51.446;6.528;2024-02-26T12:49:30;7.30;99.90
27858;DHT22;16852;51.446;6.528;2024-02-26T12:51:31;7.40;99.90
27858;DHT22;16852;51.446;6.528;2024-02-26T12:53:32;7.30;99.90
27858;DHT22;16852;51.446;6.528;2024-02-26T12:55:33;7.30;99.90
27858;DHT22;16852;51.446;6.528;2024-02-26T12:57:38;7.40;99.90
27858;DHT22;16852;51.446;6.528;2024-02-26T12:59:39;7.40;99.90